AEST,Max TemperatureF,Mean TemperatureF,Min TemperatureF,Max Dew PointF,MeanDew PointF,Min DewpointF,Max Humidity, Mean Humidity, Min Humidity, Max Sea Level PressureIn, Mean Sea Level PressureIn, Min Sea Level PressureIn, Max VisibilityMiles, Mean VisibilityMiles, Min VisibilityMiles, Max Wind SpeedMPH, Mean Wind SpeedMPH, Max Gust SpeedMPH,PrecipitationIn, CloudCover, Events, WindDirDegrees
2012-3-1,86,82,77,77,76,73,100,87,66,29.83,29.75,29.68,6,5,1,13,6,,0.00,4,Rain,135
2012-3-2,86,82,77,79,76,73,100,87,74,29.80,29.74,29.68,6,6,2,12,5,,0.00,5,Rain,136
2012-3-3,87,81,75,77,75,72,100,81,62,29.83,29.78,29.74,6,6,0,15,8,,0.00,4,Rain,141
2012-3-4,89,82,75,75,73,70,100,75,52,29.83,29.79,29.74,6,6,6,16,9,,0.00,2,,146
2012-3-5,87,80,73,79,74,72,94,82,66,29.83,29.77,29.71,6,6,3,10,5,,0.00,3,Rain,51
2012-3-6,89,83,77,84,75,72,94,79,55,29.80,29.73,29.68,6,6,3,14,8,,0.00,2,Rain,139
2012-3-7,87,81,75,75,74,72,100,80,62,29.74,29.67,29.59,6,6,3,10,4,,0.00,4,,81
2012-3-8,87,82,77,77,75,72,94,84,62,29.80,29.70,29.62,6,6,5,12,4,,0.00,6,Rain,167
2012-3-9,89,82,75,75,74,72,94,80,62,29.83,29.77,29.71,6,6,1,18,9,,0.00,5,Rain,146
2012-3-10,86,80,75,75,73,72,94,84,66,29.86,29.80,29.74,6,6,2,20,11,,0.00,6,Rain,160
2012-3-11,80,76,73,75,73,72,100,90,74,29.89,29.83,29.77,6,5,2,13,9,,0.00,6,Rain,166
2012-3-12,82,78,73,77,74,70,100,91,74,29.89,29.83,29.80,6,5,1,14,10,,0.00,6,Rain,166
2012-3-13,78,76,75,75,74,72,100,93,83,29.89,29.84,29.80,6,4,1,15,11,,0.00,6,Rain,170
2012-3-14,86,80,75,75,74,72,100,87,66,29.86,29.80,29.74,6,5,2,13,8,,0.00,6,Rain,154
2012-3-15,84,78,73,77,75,73,100,92,74,29.80,29.74,29.68,6,5,2,10,5,,0.00,6,Rain,140
2012-3-16,84,80,75,79,76,73,100,93,74,29.74,29.68,29.62,6,6,2,12,3,,0.00,6,Rain,291
2012-3-17,82,78,75,79,77,75,100,94,84,29.71,29.64,29.59,6,5,2,16,5,24,0.00,6,Rain,333
2012-3-18,82,78,75,79,77,75,100,95,79,29.71,29.66,29.59,6,4,0,13,7,,0.00,6,Rain,355
2012-3-19,82,78,75,79,78,75,100,95,84,29.65,29.60,29.56,6,4,0,23,10,34,0.00,5,Rain-Thunderstorm,355
2012-3-20,82,80,77,79,77,73,100,90,83,29.59,29.55,29.47,6,6,2,20,10,,0.00,6,Rain,325
2012-3-21,87,82,78,79,75,72,89,79,62,29.59,29.54,29.47,6,6,6,20,8,,0.00,4,Rain,314
2012-3-22,93,85,77,77,72,66,89,69,43,29.68,29.58,29.50,6,6,6,18,8,,0.00,4,,294
2012-3-23,87,81,75,77,74,72,94,78,58,29.74,29.67,29.62,6,6,6,13,6,,0.00,3,Rain,59
2012-3-24,87,81,75,75,74,72,100,80,62,29.80,29.74,29.68,6,6,3,13,8,,0.00,5,Rain,148
2012-3-25,89,82,75,75,74,72,100,83,59,29.86,29.80,29.74,6,6,2,16,7,,0.00,5,Rain,158
2012-3-26,78,76,73,75,74,70,100,92,78,29.92,29.83,29.77,6,4,0,18,10,,0.00,7,Rain,171
2012-3-27,82,78,73,75,73,72,94,88,70,29.92,29.88,29.83,6,6,2,20,13,31,0.00,5,Rain,165
2012-3-28,84,78,71,82,70,66,100,81,58,29.95,29.88,29.80,6,6,2,18,12,26,0.00,5,Rain,161
2012-3-29,86,78,71,70,65,57,83,62,45,29.89,29.85,29.77,6,6,6,21,13,,0.00,2,Rain,160
2012-3-30,86,78,69,68,65,63,88,66,45,29.92,29.85,29.77,6,6,6,18,8,,0.00,4,,155
2012-3-31,87,76,66,68,62,55,94,64,33,29.95,29.88,29.80,6,6,6,21,8,,0.00,1,,145